Time;durP1;ratioP1;P1;durP2;ratioP2;P2;SDS_P1;SDS_P2;PMS_P1;PMS_P2;Temp;Humidity;BMP_temperature;BMP_pressure;BME280_temperature;BME280_humidity;BME280_pressure;Samples;Min_cycle;Max_cycle;Signal;HPM_P1;HPM_P2
2021/08/01 00:00:30;;;;;;;3.30;3.00;;;;;;;17.51;86.23;96105.16;5032917;28;20261;-64
2021/08/01 00:02:56;;;;;;;2.90;2.70;;;;;;;17.32;88.83;96107.81;5031084;28;20179;-64
2021/08/01 00:05:22;;;;;;;3.27;2.97;;;;;;;17.16;89.23;96105.66;5033037;28;20202;-65
2021/08/01 00:07:47;;;;;;;3.50;3.20;;;;;;;16.86;91.72;96104.16;5030310;28;20191;-65
2021/08/01 00:10:12;;;;;;;3.90;3.50;;;;;;;16.85;94.37;96107.88;5033159;28;20287;-65
2021/08/01 00:12:40;;;;;;;5.73;3.57;;;;;;;16.86;95.84;96104.94;5032340;28;20193;-65
2021/08/01 00:15:07;;;;;;;4.33;3.53;;;;;;;17.06;95.24;96109.19;5032519;28;20647;-64
2021/08/01 00:17:32;;;;;;;4.13;3.60;;;;;;;16.83;95.72;96108.16;5033127;28;20190;-65
2021/08/01 00:19:57;;;;;;;3.70;3.40;;;;;;;16.70;97.12;96106.19;5030831;28;20260;-64
2021/08/01 00:22:24;;;;;;;4.07;3.70;;;;;;;16.77;98.75;96108.50;5032911;28;20193;-64
2021/08/01 00:24:50;;;;;;;5.47;3.80;;;;;;;16.54;98.58;96113.47;5032195;28;20214;-64
2021/08/01 00:27:15;;;;;;;6.80;3.73;;;;;;;16.50;98.95;96112.44;5031432;28;20245;-64
2021/08/01 00:29:41;;;;;;;6.73;3.83;;;;;;;16.49;98.00;96102.16;5031587;28;20187;-64
2021/08/01 00:32:07;;;;;;;4.23;3.80;;;;;;;16.53;98.82;96095.22;5032639;28;20182;-64
2021/08/01 00:34:34;;;;;;;5.40;4.10;;;;;;;16.40;100.00;96094.03;5032544;28;20643;-64
2021/08/01 00:36:59;;;;;;;4.83;4.03;;;;;;;16.41;100.00;96090.31;5030724;28;20194;-64
2021/08/01 00:39:25;;;;;;;5.37;3.90;;;;;;;16.55;100.00;96093.09;5032461;28;20236;-64
2021/08/01 00:41:50;;;;;;;4.10;3.70;;;;;;;16.55;100.00;96090.47;5031805;28;20189;-65
2021/08/01 00:44:15;;;;;;;6.33;4.20;;;;;;;16.66;100.00;96086.66;5031837;28;20186;-64
2021/08/01 00:46:43;;;;;;;4.37;3.97;;;;;;;16.76;100.00;96088.41;5031688;28;20199;-65
2021/08/01 00:49:08;;;;;;;4.03;3.63;;;;;;;16.70;100.00;96086.88;5030988;28;20227;-64
2021/08/01 00:51:35;;;;;;;5.40;3.53;;;;;;;16.79;100.00;96085.97;5031688;28;20195;-70
2021/08/01 00:54:01;;;;;;;5.47;4.33;;;;;;;16.89;100.00;96083.19;5031857;28;20186;-64
2021/08/01 00:56:26;;;;;;;4.73;3.53;;;;;;;16.90;100.00;96076.84;5032070;28;20194;-64
2021/08/01 00:58:52;;;;;;;6.20;4.57;;;;;;;16.97;100.00;96074.63;5031417;28;20186;-64
2021/08/01 01:01:22;;;;;;;4.60;3.80;;;;;;;17.00;100.00;96078.56;5030718;28;20787;-64
2021/08/01 01:03:56;;;;;;;4.73;4.23;;;;;;;16.89;100.00;96077.09;5031023;28;20542;-64
2021/08/01 01:06:25;;;;;;;3.83;3.43;;;;;;;16.91;100.00;96081.06;5031802;28;20189;-64
2021/08/01 01:09:00;;;;;;;3.90;3.50;;;;;;;16.85;100.00;96081.41;5029351;28;20240;-65
2021/08/01 01:11:32;;;;;;;3.93;3.60;;;;;;;16.80;100.00;96082.25;5031632;28;20535;-64
2021/08/01 01:13:58;;;;;;;5.30;3.97;;;;;;;16.80;100.00;96084.91;5031426;28;20173;-64
2021/08/01 01:16:26;;;;;;;4.73;3.83;;;;;;;16.85;100.00;96081.41;5031966;28;20202;-64
2021/08/01 01:18:57;;;;;;;4.20;3.70;;;;;;;16.76;100.00;96083.91;5031483;28;20175;-64
2021/08/01 01:21:47;;;;;;;3.87;3.57;;;;;;;16.76;100.00;96080.47;5031832;28;20217;-64
2021/08/01 01:24:17;;;;;;;4.73;3.60;;;;;;;16.62;100.00;96077.69;5031959;28;20178;-65
2021/08/01 01:27:15;;;;;;;5.83;3.90;;;;;;;16.57;100.00;96083.00;5031084;28;20206;-64
2021/08/01 01:29:49;;;;;;;5.43;3.60;;;;;;;16.67;100.00;96082.13;5016685;28;20178;-64
2021/08/01 01:32:25;;;;;;;6.00;3.63;;;;;;;16.62;100.00;96083.78;5031504;28;20178;-64
2021/08/01 01:35:02;;;;;;;4.87;4.10;;;;;;;16.55;100.00;96080.63;5029827;28;20519;-64
2021/08/01 01:37:29;;;;;;;4.87;3.83;;;;;;;16.59;100.00;96068.47;5032048;28;20183;-63
2021/08/01 01:39:58;;;;;;;6.00;4.33;;;;;;;16.67;100.00;96075.00;5030719;28;20230;-64
2021/08/01 01:42:23;;;;;;;5.60;3.80;;;;;;;16.62;100.00;96081.13;5031196;28;20644;-64
2021/08/01 01:44:49;;;;;;;5.63;4.03;;;;;;;16.45;100.00;96079.97;5030394;28;20261;-66
2021/08/01 01:47:17;;;;;;;5.57;4.20;;;;;;;16.59;100.00;96079.06;5031433;28;20681;-63
2021/08/01 01:49:43;;;;;;;4.93;4.43;;;;;;;16.57;100.00;96078.50;5030078;28;20186;-64
2021/08/01 01:52:14;;;;;;;7.10;4.47;;;;;;;16.45;100.00;96078.09;5031032;28;20214;-64
2021/08/01 01:54:42;;;;;;;6.10;4.43;;;;;;;16.46;100.00;96078.91;5029149;28;20236;-67
2021/08/01 01:57:08;;;;;;;8.70;5.13;;;;;;;16.43;100.00;96074.19;5031413;28;20695;-63
2021/08/01 01:59:34;;;;;;;5.43;4.93;;;;;;;16.49;100.00;96067.78;5031659;28;20209;-63
2021/08/01 02:01:59;;;;;;;7.03;5.10;;;;;;;16.58;100.00;96066.88;5030708;28;20183;-65
2021/08/01 02:04:25;;;;;;;5.43;4.80;;;;;;;16.49;100.00;96063.28;5031155;28;20577;-63
2021/08/01 02:06:50;;;;;;;7.13;4.73;;;;;;;16.40;100.00;96066.78;5028309;28;20257;-63
2021/08/01 02:09:24;;;;;;;5.83;4.90;;;;;;;16.38;100.00;96071.59;5031152;28;20261;-63
2021/08/01 02:12:15;;;;;;;8.40;5.10;;;;;;;16.24;100.00;96071.44;5030374;28;20197;-63
2021/08/01 02:14:46;;;;;;;6.43;4.90;;;;;;;16.36;100.00;96076.38;5029142;28;20217;-69
2021/08/01 02:17:17;;;;;;;6.90;5.20;;;;;;;16.28;100.00;96071.66;5031050;28;20182;-62
2021/08/01 02:19:44;;;;;;;7.73;4.63;;;;;;;16.25;100.00;96073.03;5030249;28;20178;-63
2021/08/01 02:22:11;;;;;;;5.77;4.60;;;;;;;16.39;100.00;96062.56;5029652;28;20205;-63
2021/08/01 02:24:37;;;;;;;4.80;4.40;;;;;;;16.25;100.00;96067.75;5030493;28;20178;-63
2021/08/01 02:27:04;;;;;;;8.73;5.10;;;;;;;16.19;100.00;96072.28;5030304;28;20293;-63
2021/08/01 02:29:31;;;;;;;5.37;4.33;;;;;;;16.10;100.00;96071.34;5031163;28;20187;-63
2021/08/01 02:31:58;;;;;;;6.13;4.70;;;;;;;16.26;100.00;96056.09;5030376;28;20206;-62
2021/08/01 02:34:25;;;;;;;6.27;4.63;;;;;;;16.19;100.00;96063.56;5030845;28;20191;-62
2021/08/01 02:36:53;;;;;;;8.47;4.80;;;;;;;16.14;100.00;96055.69;5030086;28;20186;-66
2021/08/01 02:39:21;;;;;;;5.43;4.70;;;;;;;16.16;100.00;96059.63;5030917;28;20231;-63
2021/08/01 02:41:47;;;;;;;6.00;5.17;;;;;;;16.06;100.00;96056.28;5029892;28;20545;-65
2021/08/01 02:44:17;;;;;;;5.80;4.47;;;;;;;16.09;100.00;96055.75;5029707;28;20620;-68
2021/08/01 02:46:44;;;;;;;6.97;5.33;;;;;;;16.00;100.00;96055.53;5033328;28;20202;-72
2021/08/01 02:49:16;;;;;;;5.33;4.47;;;;;;;16.07;100.00;96063.16;5034421;28;20187;-65
2021/08/01 02:51:41;;;;;;;4.57;4.17;;;;;;;16.16;100.00;96058.84;5033766;28;20250;-72
2021/08/01 02:54:08;;;;;;;5.30;4.67;;;;;;;16.09;100.00;96067.09;5034154;28;20306;-65
2021/08/01 02:56:35;;;;;;;5.30;4.67;;;;;;;16.09;100.00;96066.31;5034289;28;20205;-65
2021/08/01 02:59:02;;;;;;;7.10;4.80;;;;;;;16.05;100.00;96060.78;5033709;28;20206;-62
2021/08/01 03:01:29;;;;;;;7.20;5.10;;;;;;;16.05;100.00;96058.13;5034361;28;20193;-62
2021/08/01 03:03:55;;;;;;;7.87;4.77;;;;;;;16.14;100.00;96066.28;5033520;28;20210;-62
2021/08/01 03:06:21;;;;;;;6.23;4.67;;;;;;;16.16;100.00;96064.16;5031906;28;20226;-66
2021/08/01 03:08:47;;;;;;;5.73;4.77;;;;;;;16.06;100.00;96072.94;5033447;28;20190;-65
2021/08/01 03:11:22;;;;;;;6.17;5.07;;;;;;;16.13;100.00;96072.63;5033957;28;20187;-65
2021/08/01 03:13:48;;;;;;;9.67;5.53;;;;;;;16.12;100.00;96074.47;5033348;28;20186;-65
2021/08/01 03:16:13;;;;;;;7.23;5.10;;;;;;;16.06;100.00;96085.38;5034044;28;20187;-64
2021/08/01 03:18:38;;;;;;;6.47;5.13;;;;;;;16.08;100.00;96080.59;5034193;28;20198;-65
2021/08/01 03:21:04;;;;;;;5.87;4.43;;;;;;;16.15;100.00;96076.56;5033344;28;20197;-63
2021/08/01 03:23:29;;;;;;;7.30;4.70;;;;;;;16.12;100.00;96090.34;5033676;28;20666;-62
2021/08/01 03:25:54;;;;;;;7.20;5.47;;;;;;;16.16;100.00;96085.28;5032117;28;20252;-63
2021/08/01 03:28:20;;;;;;;6.10;4.83;;;;;;;16.20;100.00;96083.66;5033915;28;20175;-63
2021/08/01 03:30:45;;;;;;;5.80;4.73;;;;;;;16.14;100.00;96080.28;5031701;28;20264;-66
2021/08/01 03:33:11;;;;;;;7.53;4.90;;;;;;;16.15;100.00;96078.44;5033752;28;20261;-65
2021/08/01 03:35:36;;;;;;;7.20;5.00;;;;;;;16.10;100.00;96081.13;5033300;28;20187;-65
2021/08/01 03:38:01;;;;;;;7.00;4.87;;;;;;;16.18;100.00;96086.56;5031778;28;21066;-62
2021/08/01 03:40:27;;;;;;;6.27;4.83;;;;;;;16.00;100.00;96089.91;5033412;28;20276;-65
2021/08/01 03:42:53;;;;;;;5.63;4.70;;;;;;;15.91;100.00;96088.16;5033078;28;20659;-65
2021/08/01 03:45:19;;;;;;;6.30;4.80;;;;;;;16.09;100.00;96090.13;5032166;28;20186;-65
2021/08/01 03:47:44;;;;;;;7.93;4.57;;;;;;;16.00;100.00;96094.41;5031515;28;20271;-73
2021/08/01 03:50:09;;;;;;;5.77;5.17;;;;;;;15.96;100.00;96093.38;5032950;28;20635;-69
2021/08/01 03:52:35;;;;;;;6.60;5.10;;;;;;;15.88;100.00;96101.94;5032388;28;20198;-64
2021/08/01 03:55:00;;;;;;;11.47;4.60;;;;;;;15.92;100.00;96100.31;5032758;28;20187;-64
2021/08/01 03:57:26;;;;;;;7.47;5.40;;;;;;;15.97;100.00;96102.91;5032816;28;20266;-64
2021/08/01 03:59:51;;;;;;;6.93;5.33;;;;;;;15.94;100.00;96092.91;5032372;28;20174;-64
2021/08/01 04:02:17;;;;;;;5.93;5.20;;;;;;;15.71;100.00;96103.13;5033662;28;20222;-64
2021/08/01 04:04:42;;;;;;;9.73;5.00;;;;;;;15.76;100.00;96103.06;5032278;28;20274;-72
2021/08/01 04:07:07;;;;;;;7.93;5.43;;;;;;;15.75;100.00;96103.34;5030845;28;20296;-64
2021/08/01 04:09:33;;;;;;;8.63;5.00;;;;;;;15.85;100.00;96097.19;5033523;28;20240;-64
2021/08/01 04:11:58;;;;;;;8.90;5.27;;;;;;;15.90;100.00;96100.56;5032357;28;20245;-64
2021/08/01 04:14:25;;;;;;;6.10;5.50;;;;;;;15.97;100.00;96098.41;5032929;28;20182;-64
2021/08/01 04:16:51;;;;;;;6.03;5.37;;;;;;;15.96;100.00;96101.31;5032322;28;20179;-66
2021/08/01 04:19:16;;;;;;;7.03;5.33;;;;;;;15.89;100.00;96090.28;5032667;28;20183;-65
2021/08/01 04:21:43;;;;;;;6.43;5.13;;;;;;;15.92;100.00;96100.31;5032449;28;20182;-72
2021/08/01 04:24:10;;;;;;;7.50;5.43;;;;;;;15.96;100.00;96101.31;5032267;28;20247;-64
2021/08/01 04:26:36;;;;;;;7.10;5.70;;;;;;;15.87;100.00;96106.41;5032838;28;20686;-63
2021/08/01 04:29:02;;;;;;;6.23;5.27;;;;;;;15.87;100.00;96106.41;5032134;28;20179;-64
2021/08/01 04:31:27;;;;;;;6.37;5.33;;;;;;;15.85;100.00;96113.03;5032939;28;20190;-68
2021/08/01 04:33:53;;;;;;;5.83;5.20;;;;;;;15.77;100.00;96117.84;5031603;28;20317;-64
2021/08/01 04:36:18;;;;;;;5.80;5.03;;;;;;;15.78;100.00;96122.06;5031190;28;20205;-64
2021/08/01 04:38:44;;;;;;;6.50;4.83;;;;;;;15.88;100.00;96123.88;5031872;28;20226;-72
2021/08/01 04:41:09;;;;;;;5.17;4.50;;;;;;;15.83;100.00;96113.31;5032507;28;20715;-64
2021/08/01 04:43:34;;;;;;;7.47;4.90;;;;;;;15.93;100.00;96112.47;5032365;28;20656;-64
2021/08/01 04:46:00;;;;;;;5.23;4.37;;;;;;;15.91;100.00;96107.44;5030766;28;20317;-63
2021/08/01 04:48:25;;;;;;;5.60;4.63;;;;;;;15.89;100.00;96108.75;5032196;28;20549;-63
2021/08/01 04:50:51;;;;;;;4.63;4.23;;;;;;;15.91;100.00;96104.00;5031287;28;20521;-62
2021/08/01 04:53:16;;;;;;;5.83;4.70;;;;;;;15.83;100.00;96113.31;5032093;28;20195;-62
2021/08/01 04:55:41;;;;;;;6.80;4.50;;;;;;;15.88;100.00;96113.28;5031923;28;20650;-70
2021/08/01 04:58:07;;;;;;;5.97;4.30;;;;;;;15.85;100.00;96107.75;5032153;28;20221;-63
2021/08/01 05:00:33;;;;;;;5.80;5.10;;;;;;;15.89;100.00;96106.91;5032231;28;20182;-62
2021/08/01 05:02:59;;;;;;;5.93;4.53;;;;;;;15.86;100.00;96110.13;5030123;28;20190;-62
2021/08/01 05:05:24;;;;;;;4.67;4.27;;;;;;;16.02;100.00;96103.66;5029992;28;20605;-64
2021/08/01 05:07:50;;;;;;;5.07;4.57;;;;;;;16.09;100.00;96112.06;5031141;28;20178;-62
2021/08/01 05:10:15;;;;;;;4.70;4.30;;;;;;;16.12;100.00;96102.75;5031487;28;20571;-62
2021/08/01 05:12:41;;;;;;;5.37;4.27;;;;;;;16.04;100.00;96106.03;5031906;28;20178;-70
2021/08/01 05:15:07;;;;;;;4.80;4.33;;;;;;;16.04;100.00;96104.16;5031283;28;20197;-62
2021/08/01 05:17:32;;;;;;;8.90;4.67;;;;;;;16.11;100.00;96103.81;5032041;28;20191;-63
2021/08/01 05:19:58;;;;;;;4.50;4.13;;;;;;;16.03;100.00;96085.94;5030922;28;20196;-62
2021/08/01 05:22:23;;;;;;;4.93;4.40;;;;;;;16.01;100.00;96085.41;5030478;28;20196;-62
2021/08/01 05:24:48;;;;;;;4.97;4.40;;;;;;;16.05;100.00;96094.38;5030663;28;20327;-64
2021/08/01 05:27:14;;;;;;;5.10;4.23;;;;;;;16.12;100.00;96085.03;5031577;28;20205;-62
2021/08/01 05:29:39;;;;;;;4.83;4.23;;;;;;;16.23;100.00;96097.09;5030460;28;20191;-62
2021/08/01 05:32:05;;;;;;;5.33;4.37;;;;;;;16.23;100.00;96102.41;5030760;28;20631;-67
2021/08/01 05:34:31;;;;;;;5.20;4.70;;;;;;;16.11;100.00;96107.25;5031095;28;20603;-62
2021/08/01 05:36:57;;;;;;;5.50;4.17;;;;;;;16.07;100.00;96110.75;5029790;28;20210;-62
2021/08/01 05:39:22;;;;;;;6.00;4.03;;;;;;;16.25;100.00;96110.06;5031531;28;20253;-62
2021/08/01 05:41:48;;;;;;;4.80;4.40;;;;;;;16.35;100.00;96111.81;5030717;28;20233;-62
2021/08/01 05:44:13;;;;;;;4.40;4.00;;;;;;;16.35;100.00;96115.25;5030183;28;20243;-70
2021/08/01 05:46:38;;;;;;;4.07;3.73;;;;;;;16.31;100.00;96108.94;5031587;28;20236;-64
2021/08/01 05:49:04;;;;;;;4.27;3.87;;;;;;;16.54;100.00;96097.59;5030691;28;20209;-63
2021/08/01 05:51:29;;;;;;;4.63;4.10;;;;;;;16.72;100.00;96096.09;5030963;28;20190;-69
2021/08/01 05:53:54;;;;;;;5.00;4.50;;;;;;;16.77;100.00;96095.28;5029985;28;20206;-62
2021/08/01 05:56:20;;;;;;;6.33;4.23;;;;;;;16.80;100.00;96092.84;5031080;28;20236;-62
2021/08/01 05:58:46;;;;;;;4.67;4.00;;;;;;;16.79;100.00;96095.75;5030606;28;20210;-66
2021/08/01 06:01:16;;;;;;;4.43;4.03;;;;;;;16.74;100.00;96095.81;5029898;28;20194;-63
2021/08/01 06:03:43;;;;;;;5.80;3.90;;;;;;;16.82;100.00;96082.78;5029782;28;20209;-70
2021/08/01 06:06:10;;;;;;;4.57;3.90;;;;;;;16.82;100.00;96077.47;5028747;28;20206;-62
2021/08/01 06:08:36;;;;;;;4.87;3.43;;;;;;;16.87;100.00;96082.72;5030812;28;20263;-64
2021/08/01 06:11:03;;;;;;;3.90;3.53;;;;;;;16.88;100.00;96084.28;5029636;28;20859;-62
2021/08/01 06:13:29;;;;;;;4.07;3.67;;;;;;;16.98;100.00;96086.81;5031035;28;20187;-62
2021/08/01 06:15:54;;;;;;;5.67;3.90;;;;;;;16.88;100.00;96086.16;5030269;28;20516;-62
2021/08/01 06:18:19;;;;;;;4.67;3.90;;;;;;;16.95;100.00;96099.81;5031016;28;20587;-62
2021/08/01 06:20:45;;;;;;;4.53;3.80;;;;;;;16.97;100.00;96093.16;5032322;28;20183;-71
2021/08/01 06:23:10;;;;;;;5.47;3.67;;;;;;;16.90;100.00;96090.06;5034817;28;20281;-62
2021/08/01 06:25:38;;;;;;;4.67;4.13;;;;;;;16.85;100.00;96090.13;5033673;28;20194;-62
2021/08/01 06:28:04;;;;;;;4.20;3.80;;;;;;;16.83;100.00;96099.44;5033767;28;20243;-62
2021/08/01 06:30:29;;;;;;;6.83;3.93;;;;;;;16.93;100.00;96102.75;5034549;28;20258;-62
2021/08/01 06:32:55;;;;;;;3.80;3.50;;;;;;;17.13;100.00;96109.66;5034136;28;20209;-62
2021/08/01 06:35:20;;;;;;;6.77;3.93;;;;;;;17.25;99.62;96111.88;5034464;28;20626;-62
2021/08/01 06:37:45;;;;;;;9.40;4.13;;;;;;;17.12;99.80;96116.00;5033997;28;20187;-71
2021/08/01 06:40:11;;;;;;;4.90;4.30;;;;;;;17.10;99.59;96118.16;5034172;28;20307;-61
2021/08/01 06:42:36;;;;;;;4.37;3.97;;;;;;;17.11;99.00;96113.66;5034473;28;20630;-61
2021/08/01 06:45:02;;;;;;;4.67;4.20;;;;;;;17.03;99.29;96120.38;5033737;28;20246;-62
2021/08/01 06:47:27;;;;;;;4.07;3.67;;;;;;;17.09;99.41;96127.19;5034061;28;20206;-62
2021/08/01 06:49:53;;;;;;;7.07;4.10;;;;;;;17.32;97.63;96133.53;5033563;28;20652;-62
2021/08/01 06:52:18;;;;;;;4.10;3.80;;;;;;;17.05;99.32;96131.47;5034371;28;20598;-62
2021/08/01 06:54:43;;;;;;;4.40;3.87;;;;;;;16.95;100.00;96139.50;5034421;28;20183;-73
2021/08/01 06:57:09;;;;;;;4.07;3.67;;;;;;;17.18;98.96;96136.06;5034387;28;20647;-63
2021/08/01 06:59:34;;;;;;;4.70;4.30;;;;;;;17.34;97.52;96136.66;5033899;28;20305;-62
2021/08/01 07:02:00;;;;;;;4.10;3.70;;;;;;;17.46;97.00;96139.69;5033643;28;20182;-62
2021/08/01 07:04:25;;;;;;;5.33;3.80;;;;;;;17.70;95.72;96139.66;5032585;28;20190;-62
2021/08/01 07:06:50;;;;;;;3.80;3.40;;;;;;;17.97;94.14;96145.06;5032933;28;20252;-62
2021/08/01 07:09:16;;;;;;;3.77;3.37;;;;;;;18.21;92.35;96155.56;5033547;28;20193;-65
2021/08/01 07:11:41;;;;;;;4.17;3.77;;;;;;;18.42;91.28;96154.16;5033358;28;20182;-62
2021/08/01 07:14:07;;;;;;;3.90;3.50;;;;;;;18.48;91.53;96147.69;5031610;28;20236;-62
2021/08/01 07:16:32;;;;;;;3.55;3.25;;;;;;;18.58;89.15;96155.50;5033681;28;20554;-62
2021/08/01 07:18:57;;;;;;;4.77;3.50;;;;;;;18.59;88.50;96146.44;5031374;28;20229;-62
2021/08/01 07:21:23;;;;;;;3.20;3.00;;;;;;;18.57;87.59;96155.78;5033492;28;20206;-62
2021/08/01 07:23:48;;;;;;;4.40;4.00;;;;;;;18.69;87.43;96158.75;5032861;28;20194;-73
2021/08/01 07:26:14;;;;;;;4.18;3.42;;;;;;;18.55;87.73;96155.28;5033543;28;20712;-63
2021/08/01 07:28:39;;;;;;;3.95;3.55;;;;;;;18.50;88.59;96161.44;5033711;28;20218;-63
2021/08/01 07:31:04;;;;;;;9.67;3.37;;;;;;;18.43;88.78;96169.00;5032513;28;20616;-65
2021/08/01 07:33:30;;;;;;;4.13;3.60;;;;;;;18.33;89.21;96163.06;5032654;28;20670;-63
2021/08/01 07:35:57;;;;;;;3.40;3.10;;;;;;;18.28;88.70;96163.94;5032867;28;20199;-63
2021/08/01 07:38:24;;;;;;;5.17;3.63;;;;;;;18.03;90.26;96165.13;5033563;28;20229;-63
2021/08/01 07:40:50;;;;;;;3.90;3.50;;;;;;;17.29;94.79;96174.59;5033277;28;20182;-71
2021/08/01 07:43:15;;;;;;;4.57;3.80;;;;;;;17.05;98.26;96169.31;5033344;28;20538;-63
2021/08/01 07:45:40;;;;;;;5.63;4.03;;;;;;;17.31;97.54;96167.16;5033160;28;20213;-64
2021/08/01 07:48:06;;;;;;;5.30;4.67;;;;;;;17.39;96.85;96173.66;5032738;28;20195;-63
2021/08/01 07:50:31;;;;;;;4.67;4.27;;;;;;;17.42;96.67;96173.13;5033088;28;20317;-69
2021/08/01 07:52:57;;;;;;;4.70;4.30;;;;;;;17.48;96.24;96171.97;5032839;28;20179;-62
2021/08/01 07:55:23;;;;;;;8.03;4.80;;;;;;;17.42;96.47;96173.91;5032650;28;20194;-64
2021/08/01 07:57:50;;;;;;;5.10;4.37;;;;;;;17.40;96.19;96167.31;5032679;28;20561;-71
2021/08/01 08:00:15;;;;;;;5.00;4.50;;;;;;;17.17;97.95;96176.84;5033370;28;20264;-62
2021/08/01 08:02:41;;;;;;;5.47;4.70;;;;;;;16.49;100.00;96176.25;5032893;28;20233;-63
2021/08/01 08:05:07;;;;;;;5.33;4.83;;;;;;;16.31;100.00;96177.72;5023840;28;20198;-67
2021/08/01 08:07:33;;;;;;;5.47;4.87;;;;;;;16.28;100.00;96182.75;5033039;28;20296;-62
2021/08/01 08:09:58;;;;;;;5.80;5.20;;;;;;;16.50;100.00;96185.72;5032533;28;20214;-62
2021/08/01 08:12:26;;;;;;;6.50;5.60;;;;;;;16.68;100.00;96176.34;5032991;28;20187;-62
2021/08/01 08:14:51;;;;;;;7.40;5.30;;;;;;;16.82;100.00;96185.22;5030591;28;20186;-72
2021/08/01 08:17:17;;;;;;;6.47;5.87;;;;;;;17.00;100.00;96176.53;5032607;28;20568;-62
2021/08/01 08:19:43;;;;;;;6.43;5.77;;;;;;;17.04;100.00;96172.25;5032722;28;20179;-62
2021/08/01 08:22:09;;;;;;;6.73;5.73;;;;;;;17.04;100.00;96185.50;5031671;28;20780;-62
2021/08/01 08:24:35;;;;;;;6.83;5.43;;;;;;;17.02;100.00;96188.41;5032421;28;20197;-63
2021/08/01 08:27:01;;;;;;;6.97;5.57;;;;;;;17.10;100.00;96186.22;5032158;28;20230;-63
2021/08/01 08:29:26;;;;;;;5.23;4.73;;;;;;;17.10;100.00;96186.22;5032669;28;20214;-62
2021/08/01 08:31:53;;;;;;;4.87;4.47;;;;;;;17.03;100.00;96194.50;5031735;28;20237;-72
2021/08/01 08:34:19;;;;;;;5.03;4.17;;;;;;;17.11;100.00;96188.56;5031714;28;20179;-63
2021/08/01 08:36:49;;;;;;;6.50;4.10;;;;;;;17.20;100.00;96180.81;5032485;28;20221;-63
2021/08/01 08:39:16;;;;;;;5.33;4.70;;;;;;;17.59;100.00;96185.88;5031907;28;20242;-63
2021/08/01 08:41:42;;;;;;;4.20;3.80;;;;;;;17.84;100.00;96186.34;5031220;28;20241;-62
2021/08/01 08:44:08;;;;;;;4.13;3.80;;;;;;;18.10;98.45;96181.47;5031385;28;20187;-63
2021/08/01 08:46:35;;;;;;;3.57;3.17;;;;;;;17.93;94.16;96194.47;5031778;28;20278;-65
2021/08/01 08:49:06;;;;;;;3.93;3.30;;;;;;;18.03;95.23;96196.97;5030340;28;20269;-63
2021/08/01 08:51:34;;;;;;;3.80;3.00;;;;;;;18.24;95.21;96197.44;5031934;28;20183;-64
2021/08/01 08:54:00;;;;;;;3.73;3.07;;;;;;;18.26;95.19;96200.59;5031201;28;20217;-63
2021/08/01 08:56:27;;;;;;;4.03;3.63;;;;;;;18.38;94.75;96205.44;5031905;28;20191;-62
2021/08/01 08:58:52;;;;;;;4.63;4.17;;;;;;;18.37;95.01;96203.88;5031619;28;20186;-71
2021/08/01 09:01:18;;;;;;;4.23;3.73;;;;;;;18.37;94.36;96206.53;5031259;28;20178;-62
2021/08/01 09:03:47;;;;;;;3.60;3.30;;;;;;;18.52;92.21;96204.41;5029973;28;20573;-62
2021/08/01 09:06:12;;;;;;;3.80;3.50;;;;;;;18.54;93.12;96207.59;5031014;28;20330;-62
2021/08/01 09:08:37;;;;;;;4.68;3.97;;;;;;;18.58;92.57;96205.13;5031854;28;20636;-66
2021/08/01 09:11:03;;;;;;;4.00;3.60;;;;;;;18.72;92.06;96210.50;5030575;28;20198;-62
2021/08/01 09:13:57;;;;;;;3.67;3.35;;;;;;;18.75;91.78;96215.19;5031944;28;20266;-63
2021/08/01 09:16:43;;;;;;;3.42;3.13;;;;;;;18.98;90.25;96220.38;5031738;28;20166;-64
2021/08/01 09:19:35;;;;;;;2.92;2.63;;;;;;;19.09;90.09;96221.75;5021451;28;20217;-63
2021/08/01 09:22:12;;;;;;;3.72;3.05;;;;;;;19.09;88.04;96221.75;5030908;28;20179;-61
2021/08/01 09:24:38;;;;;;;6.85;3.30;;;;;;;19.14;88.05;96228.84;5017937;28;20178;-62
2021/08/01 09:27:03;;;;;;;3.13;2.53;;;;;;;18.86;88.27;96228.00;5030002;28;20213;-63
2021/08/01 09:29:32;;;;;;;3.35;3.05;;;;;;;19.02;88.83;96229.31;5031367;28;20587;-62
2021/08/01 09:32:01;;;;;;;4.55;3.00;;;;;;;19.03;89.01;96227.44;5026828;28;20266;-62
2021/08/01 09:34:28;;;;;;;3.47;3.17;;;;;;;18.84;89.61;96230.16;5031300;28;20189;-61
2021/08/01 09:37:04;;;;;;;3.90;3.42;;;;;;;18.80;89.74;96234.50;5031224;28;20192;-71
2021/08/01 09:39:40;;;;;;;4.38;3.40;;;;;;;18.93;89.89;96232.94;5031090;28;20245;-62
2021/08/01 09:42:07;;;;;;;3.00;2.40;;;;;;;19.07;88.53;96228.44;5029981;28;20208;-64
2021/08/01 09:44:37;;;;;;;2.90;2.60;;;;;;;19.36;88.04;96228.94;5031222;28;20265;-62
2021/08/01 09:47:02;;;;;;;2.13;1.95;;;;;;;19.66;86.20;96230.25;5030696;28;20207;-63
2021/08/01 09:49:29;;;;;;;2.17;2.00;;;;;;;19.57;84.21;96223.22;5030961;28;20198;-63
2021/08/01 09:52:02;;;;;;;1.88;1.75;;;;;;;19.59;84.24;96226.41;5030421;28;20636;-70
2021/08/01 09:54:45;;;;;;;2.05;1.95;;;;;;;19.85;83.33;96222.09;5030508;28;20198;-64
2021/08/01 09:57:19;;;;;;;2.00;1.90;;;;;;;19.83;82.16;96219.78;5030971;28;20186;-62
2021/08/01 09:59:47;;;;;;;1.90;1.80;;;;;;;19.78;82.70;96216.44;5031313;28;20282;-63
2021/08/01 10:02:13;;;;;;;2.13;1.88;;;;;;;19.65;83.11;96223.34;5030366;28;20972;-63
2021/08/01 10:04:38;;;;;;;1.80;1.70;;;;;;;19.47;83.28;96222.38;5028686;28;20221;-63
2021/08/01 10:07:11;;;;;;;2.40;2.20;;;;;;;19.36;83.43;96212.19;5030521;28;20209;-62
2021/08/01 10:09:39;;;;;;;2.15;2.05;;;;;;;19.19;84.65;96214.66;5031100;28;20190;-62
2021/08/01 10:12:06;;;;;;;2.35;2.05;;;;;;;19.23;84.73;96218.28;5030189;28;20240;-63
2021/08/01 10:14:32;;;;;;;2.40;2.20;;;;;;;19.42;83.98;96216.34;5030844;28;20186;-62
2021/08/01 10:16:59;;;;;;;2.38;2.13;;;;;;;19.54;84.70;96211.34;5030163;28;20290;-71
2021/08/01 10:19:25;;;;;;;3.20;2.40;;;;;;;19.59;84.34;96208.56;5026646;28;20174;-63
2021/08/01 10:21:53;;;;;;;2.40;2.20;;;;;;;19.64;84.41;96213.00;5030901;28;20187;-62
2021/08/01 10:24:24;;;;;;;2.60;2.38;;;;;;;19.74;83.57;96213.56;5029122;28;20669;-62
2021/08/01 10:26:51;;;;;;;2.63;2.40;;;;;;;20.12;81.53;96207.94;5031205;28;20293;-62
2021/08/01 10:29:45;;;;;;;2.20;2.10;;;;;;;20.37;79.79;96219.91;5029556;28;20183;-62
2021/08/01 10:32:12;;;;;;;2.90;2.40;;;;;;;20.81;78.24;96211.09;5028887;28;20596;-63
2021/08/01 10:34:46;;;;;;;2.40;2.20;;;;;;;21.38;74.54;96201.34;5030776;28;20655;-62
2021/08/01 10:37:24;;;;;;;2.35;2.15;;;;;;;21.40;73.80;96204.50;5029951;28;20273;-61
2021/08/01 10:39:52;;;;;;;2.95;2.00;;;;;;;21.62;71.70;96204.38;5031023;28;20226;-61
2021/08/01 10:42:21;;;;;;;2.50;2.05;;;;;;;21.87;71.02;96206.31;5029804;28;20183;-66
2021/08/01 10:44:47;;;;;;;2.65;2.00;;;;;;;21.98;69.07;96204.94;5030535;28;20639;-61
2021/08/01 10:47:13;;;;;;;2.67;2.00;;;;;;;22.21;68.33;96202.09;5029686;28;20268;-62
2021/08/01 10:49:44;;;;;;;2.00;1.90;;;;;;;22.14;66.64;96207.91;5029176;28;20702;-63
2021/08/01 10:52:12;;;;;;;1.92;1.70;;;;;;;22.40;66.98;96203.31;5029662;28;20188;-61
2021/08/01 10:55:00;;;;;;;2.67;1.85;;;;;;;22.62;65.86;96199.72;5030366;28;20194;-61
2021/08/01 10:57:26;;;;;;;3.05;1.90;;;;;;;22.79;64.71;96197.00;5023310;28;20224;-61
2021/08/01 10:59:58;;;;;;;2.88;2.00;;;;;;;23.01;64.27;96196.00;5029891;28;20183;-62
2021/08/01 11:02:25;;;;;;;1.98;1.88;;;;;;;22.91;63.10;96192.88;5028333;28;20179;-64
2021/08/01 11:04:51;;;;;;;3.17;1.85;;;;;;;22.92;64.30;96186.44;5030349;28;20182;-62
2021/08/01 11:07:26;;;;;;;2.20;1.92;;;;;;;22.65;65.27;96193.72;5031897;28;20230;-62
2021/08/01 11:10:17;;;;;;;1.90;1.80;;;;;;;22.72;64.95;96191.38;5026962;28;20757;-62
2021/08/01 11:12:44;;;;;;;2.45;1.92;;;;;;;23.17;62.72;96191.69;5034074;28;20178;-62
2021/08/01 11:15:14;;;;;;;1.80;1.70;;;;;;;23.26;61.81;96188.97;5033683;28;20187;-62
2021/08/01 11:17:43;;;;;;;1.70;1.60;;;;;;;23.59;61.56;96195.28;5033814;28;20266;-63
2021/08/01 11:20:21;;;;;;;1.70;1.60;;;;;;;23.68;60.74;96179.19;5033494;28;20337;-63
2021/08/01 11:22:46;;;;;;;2.00;1.77;;;;;;;23.81;60.11;96188.84;5034036;28;20229;-62
2021/08/01 11:25:32;;;;;;;1.80;1.70;;;;;;;23.81;60.18;96183.47;5032873;28;20589;-63
2021/08/01 11:28:22;;;;;;;1.83;1.73;;;;;;;24.13;59.10;96186.56;5033491;28;20252;-72
2021/08/01 11:30:53;;;;;;;2.88;2.00;;;;;;;24.39;58.50;96193.28;5033882;28;20225;-63